Time;durP1;ratioP1;P1;durP2;ratioP2;P2;SDS_P1;SDS_P2;PMS_P1;PMS_P2;Temp;Humidity;BMP_temperature;BMP_pressure;BME280_temperature;BME280_humidity;BME280_pressure;Samples;Min_cycle;Max_cycle;Signal;HPM_P1;HPM_P2
2022/12/27 00:01:52;;;;;;;;;;;4.40;99.90;;;;;;5094245;28;19915;-72
2022/12/27 00:04:18;;;;;;;;;;;4.40;99.90;;;;;;5091011;28;19916;-72
2022/12/27 00:06:43;;;;;;;;;;;4.50;99.90;;;;;;5070126;28;19915;-72
2022/12/27 00:09:09;;;;;;;;;;;4.40;99.90;;;;;;5094269;28;20015;-72
2022/12/27 00:11:35;;;;;;;;;;;4.40;99.90;;;;;;5095809;28;19928;-72
2022/12/27 00:14:01;;;;;;;;;;;4.40;99.90;;;;;;5071016;28;19943;-72
2022/12/27 00:16:26;;;;;;;;;;;4.30;99.90;;;;;;5103986;28;19920;-72
2022/12/27 00:18:52;;;;;;;;;;;4.40;99.90;;;;;;5100492;28;20257;-72
2022/12/27 00:21:18;;;;;;;;;;;4.40;99.90;;;;;;5088328;28;19965;-72
2022/12/27 00:23:46;;;;;;;;;;;4.30;99.90;;;;;;5104063;28;20008;-72
2022/12/27 00:26:31;;;;;;;;;;;4.30;99.90;;;;;;5107755;28;19947;-72
2022/12/27 00:28:56;;;;;;;;;;;4.30;99.90;;;;;;5080472;28;19916;-71
2022/12/27 00:31:22;;;;;;;;;;;4.30;99.90;;;;;;5093110;28;19916;-71
2022/12/27 00:33:51;;;;;;;;;;;4.30;99.90;;;;;;5102140;28;20017;-72
2022/12/27 00:36:18;;;;;;;;;;;4.30;99.90;;;;;;5110440;28;19923;-71
2022/12/27 00:38:43;;;;;;;;;;;4.30;99.90;;;;;;5086773;28;19967;-72
2022/12/27 00:41:09;;;;;;;;;;;4.30;99.90;;;;;;5098607;28;19955;-71
2022/12/27 00:43:35;;;;;;;;;;;4.30;99.90;;;;;;5087164;28;19930;-71
2022/12/27 00:46:01;;;;;;;;;;;4.30;99.90;;;;;;5096991;28;19916;-71
2022/12/27 00:48:26;;;;;;;;;;;4.30;99.90;;;;;;5089825;28;20482;-72
2022/12/27 00:50:56;;;;;;;;;;;4.30;99.90;;;;;;5091907;28;20641;-71
2022/12/27 00:53:21;;;;;;;;;;;4.30;99.90;;;;;;5109597;28;19969;-72
2022/12/27 00:55:47;;;;;;;;;;;4.30;99.90;;;;;;5064419;28;19916;-72
2022/12/27 00:58:13;;;;;;;;;;;4.30;99.90;;;;;;5109843;28;20314;-72
2022/12/27 01:00:38;;;;;;;;;;;4.30;99.90;;;;;;5099294;28;19970;-72
2022/12/27 01:03:06;;;;;;;;;;;4.30;99.90;;;;;;5097080;28;19990;-72
2022/12/27 01:05:35;;;;;;;;;;;4.30;99.90;;;;;;5098986;28;19994;-72
2022/12/27 01:08:00;;;;;;;;;;;4.40;99.90;;;;;;5092208;28;19912;-72
2022/12/27 01:10:26;;;;;;;;;;;4.30;99.90;;;;;;5097944;28;20288;-72
2022/12/27 01:12:52;;;;;;;;;;;4.30;99.90;;;;;;5091785;28;19920;-71
2022/12/27 01:15:18;;;;;;;;;;;4.30;99.90;;;;;;5090517;28;20014;-72
2022/12/27 01:17:46;;;;;;;;;;;4.30;99.90;;;;;;5092043;28;20002;-71
2022/12/27 01:20:12;;;;;;;;;;;4.30;99.90;;;;;;5070511;28;19950;-72
2022/12/27 01:22:38;;;;;;;;;;;4.30;99.90;;;;;;5089809;28;19916;-72
2022/12/27 01:25:04;;;;;;;;;;;4.30;99.90;;;;;;5077313;28;19993;-71
2022/12/27 01:27:29;;;;;;;;;;;4.30;99.90;;;;;;5090834;28;20004;-72
2022/12/27 01:29:55;;;;;;;;;;;4.30;99.90;;;;;;5089624;28;19916;-71
2022/12/27 01:32:20;;;;;;;;;;;4.20;99.90;;;;;;5057728;28;19931;-71
2022/12/27 01:34:46;;;;;;;;;;;4.30;99.90;;;;;;5084141;28;20002;-71
2022/12/27 01:37:12;;;;;;;;;;;4.20;99.90;;;;;;5091790;28;19934;-71
2022/12/27 01:39:38;;;;;;;;;;;4.30;99.90;;;;;;5099008;28;19915;-71
2022/12/27 01:44:57;;;;;;;;;;;4.30;99.90;;;;;;5096851;28;19931;-72
2022/12/27 01:47:42;;;;;;;;;;;4.30;99.90;;;;;;5083450;28;19990;-71
2022/12/27 01:50:22;;;;;;;;;;;4.30;99.90;;;;;;5097090;28;19926;-73
2022/12/27 01:52:47;;;;;;;;;;;4.30;99.90;;;;;;5076149;28;19924;-71
2022/12/27 01:55:33;;;;;;;;;;;4.30;99.90;;;;;;5090141;28;19992;-71
2022/12/27 01:58:09;;;;;;;;;;;4.30;99.90;;;;;;5096271;28;19915;-71
2022/12/27 02:00:34;;;;;;;;;;;4.30;99.90;;;;;;5096778;28;21389;-72
2022/12/27 02:03:00;;;;;;;;;;;4.30;99.90;;;;;;5078747;28;19927;-71
2022/12/27 02:05:26;;;;;;;;;;;4.30;99.90;;;;;;5103939;28;19941;-71
2022/12/27 02:07:57;;;;;;;;;;;4.30;99.90;;;;;;5092533;28;20393;-72
2022/12/27 02:10:23;;;;;;;;;;;4.30;99.90;;;;;;5093015;28;19920;-72
2022/12/27 02:12:49;;;;;;;;;;;4.30;99.90;;;;;;5086609;28;20740;-71
2022/12/27 02:15:14;;;;;;;;;;;4.30;99.90;;;;;;5065201;28;20340;-71
2022/12/27 02:17:40;;;;;;;;;;;4.20;99.90;;;;;;5083778;28;19916;-72
2022/12/27 02:20:16;;;;;;;;;;;4.20;99.90;;;;;;5094970;28;19927;-71
2022/12/27 02:25:50;;;;;;;;;;;4.20;99.90;;;;;;5082835;28;19976;-72
2022/12/27 02:28:34;;;;;;;;;;;4.20;99.90;;;;;;5088644;28;19927;-72
2022/12/27 02:31:29;;;;;;;;;;;4.20;99.90;;;;;;5092439;28;20240;-71
2022/12/27 02:33:55;;;;;;;;;;;4.20;99.90;;;;;;5066304;28;19916;-71
2022/12/27 02:36:30;;;;;;;;;;;4.20;99.90;;;;;;5081772;28;19931;-71
2022/12/27 02:38:56;;;;;;;;;;;4.20;99.90;;;;;;5078101;28;19950;-71
2022/12/27 02:55:10;;;;;;;;;;;4.30;99.90;;;;;;5084384;28;20391;-71
2022/12/27 02:57:47;;;;;;;;;;;4.20;99.90;;;;;;5094474;28;19922;-72
2022/12/27 03:03:22;;;;;;;;;;;4.30;99.90;;;;;;5095577;28;19912;-72
2022/12/27 03:06:38;;;;;;;;;;;4.30;99.90;;;;;;5084485;28;19920;-71
2022/12/27 03:08:34;;;;;;;;;;;4.30;99.90;;;;;;5093779;28;19962;-71
2022/12/27 03:16:42;;;;;;;;;;;4.20;99.90;;;;;;5098262;28;20089;-72
2022/12/27 03:19:13;;;;;;;;;;;4.20;99.90;;;;;;5094037;28;20349;-72
2022/12/27 03:27:27;;;;;;;;;;;4.20;99.90;;;;;;5078281;28;20336;-71
2022/12/27 03:33:11;;;;;;;;;;;4.30;99.90;;;;;;5080552;28;19977;-71
2022/12/27 03:35:34;;;;;;;;;;;4.20;99.90;;;;;;5109060;28;20674;-71
2022/12/27 03:38:03;;;;;;;;;;;4.30;99.90;;;;;;5097041;28;20598;-71
2022/12/27 03:43:09;;;;;;;;;;;4.30;99.90;;;;;;5075118;28;20007;-72
2022/12/27 03:43:30;;;;;;;;;;;4.30;99.90;;;;;;5093590;28;19920;-73
2022/12/27 03:48:52;;;;;;;;;;;4.30;99.90;;;;;;5104373;28;19972;-72
2022/12/27 03:51:20;;;;;;;;;;;4.30;99.90;;;;;;5097995;28;20012;-72
2022/12/27 03:53:45;;;;;;;;;;;4.40;99.90;;;;;;5091258;28;19927;-72
2022/12/27 03:56:11;;;;;;;;;;;4.30;99.90;;;;;;5097361;28;20273;-71
2022/12/27 03:58:36;;;;;;;;;;;4.30;99.90;;;;;;5084925;28;20014;-72
2022/12/27 04:01:02;;;;;;;;;;;4.30;99.90;;;;;;5098308;28;20302;-72
2022/12/27 04:03:28;;;;;;;;;;;4.40;99.90;;;;;;5095903;28;19919;-72
2022/12/27 04:05:55;;;;;;;;;;;4.30;99.90;;;;;;5104596;28;19921;-72
2022/12/27 04:35:43;;;;;;;;;;;4.60;99.90;;;;;;5091147;28;19955;-72
2022/12/27 04:38:08;;;;;;;;;;;4.50;99.90;;;;;;5078647;28;19999;-72
2022/12/27 04:57:01;;;;;;;;;;;4.60;99.90;;;;;;5093814;28;19916;-72
2022/12/27 05:02:11;;;;;;;;;;;4.60;99.90;;;;;;5095428;28;19915;-72
2022/12/27 05:04:37;;;;;;;;;;;4.60;99.90;;;;;;5091320;28;19926;-72
2022/12/27 05:13:58;;;;;;;;;;;4.60;99.90;;;;;;5079368;28;20434;-72
2022/12/27 05:15:18;;;;;;;;;;;4.70;99.90;;;;;;5075161;28;19958;-72
2022/12/27 05:17:43;;;;;;;;;;;4.80;99.90;;;;;;5101381;28;19951;-72
2022/12/27 05:20:09;;;;;;;;;;;4.80;99.90;;;;;;5089039;28;20712;-71
2022/12/27 05:25:34;;;;;;;;;;;4.80;99.90;;;;;;5083156;28;19923;-71
2022/12/27 05:28:00;;;;;;;;;;;4.80;99.90;;;;;;5086792;28;20364;-72
2022/12/27 05:30:26;;;;;;;;;;;4.80;99.90;;;;;;5106216;28;19916;-72
2022/12/27 05:32:55;;;;;;;;;;;4.90;99.90;;;;;;5086131;28;19927;-72
2022/12/27 05:35:20;;;;;;;;;;;4.90;99.90;;;;;;5082031;28;19916;-72
2022/12/27 05:37:46;;;;;;;;;;;4.90;99.90;;;;;;5089245;28;19973;-72
2022/12/27 05:40:11;;;;;;;;;;;5.00;99.90;;;;;;5106131;28;19943;-71
2022/12/27 05:42:37;;;;;;;;;;;5.00;99.90;;;;;;5097845;28;19924;-71
2022/12/27 05:45:03;;;;;;;;;;;5.00;99.90;;;;;;5102701;28;20002;-72
2022/12/27 05:47:29;;;;;;;;;;;5.00;99.90;;;;;;5106583;28;19916;-71
2022/12/27 05:49:54;;;;;;;;;;;5.00;99.90;;;;;;5087929;28;20032;-70
2022/12/27 05:52:20;;;;;;;;;;;5.00;99.90;;;;;;5099636;28;20328;-71
2022/12/27 05:54:45;;;;;;;;;;;5.10;99.90;;;;;;5103479;28;19955;-70
2022/12/27 05:57:11;;;;;;;;;;;5.10;99.90;;;;;;5102352;28;19922;-71
2022/12/27 05:59:37;;;;;;;;;;;5.10;99.90;;;;;;5094936;28;19919;-70
2022/12/27 06:02:02;;;;;;;;;;;5.10;99.90;;;;;;5081358;28;19978;-71
2022/12/27 06:04:28;;;;;;;;;;;5.20;99.90;;;;;;5106062;28;19916;-71
2022/12/27 06:06:53;;;;;;;;;;;5.20;99.90;;;;;;5101364;28;19928;-70
2022/12/27 06:09:19;;;;;;;;;;;5.20;99.90;;;;;;5106705;28;19968;-70
2022/12/27 06:11:45;;;;;;;;;;;5.20;99.90;;;;;;5106627;28;19916;-71
2022/12/27 06:14:10;;;;;;;;;;;5.20;99.90;;;;;;5079883;28;19915;-70
2022/12/27 06:16:36;;;;;;;;;;;5.30;99.90;;;;;;5105723;28;19926;-71
2022/12/27 06:19:02;;;;;;;;;;;5.30;99.90;;;;;;5075748;28;19972;-71
2022/12/27 06:21:27;;;;;;;;;;;5.30;99.90;;;;;;5105435;28;20024;-70
2022/12/27 06:23:53;;;;;;;;;;;5.30;99.90;;;;;;5070881;28;19915;-71
2022/12/27 06:26:19;;;;;;;;;;;5.30;99.90;;;;;;5105430;28;19924;-71
2022/12/27 06:28:45;;;;;;;;;;;5.30;99.90;;;;;;5099192;28;20012;-70
2022/12/27 06:31:11;;;;;;;;;;;5.30;99.90;;;;;;5091923;28;20340;-69
2022/12/27 06:33:37;;;;;;;;;;;5.30;99.90;;;;;;5087071;28;19923;-71
2022/12/27 06:36:09;;;;;;;;;;;5.30;99.90;;;;;;5097120;28;19923;-70
2022/12/27 06:38:35;;;;;;;;;;;5.30;99.90;;;;;;5105625;28;19954;-70
2022/12/27 06:41:01;;;;;;;;;;;5.30;99.90;;;;;;5090681;28;19924;-70
2022/12/27 06:43:27;;;;;;;;;;;5.40;99.90;;;;;;5101605;28;19915;-70
2022/12/27 06:45:59;;;;;;;;;;;5.40;99.90;;;;;;5110583;28;19934;-70
2022/12/27 06:48:25;;;;;;;;;;;5.40;99.90;;;;;;5087591;28;19916;-70
2022/12/27 06:50:50;;;;;;;;;;;5.40;99.90;;;;;;5094040;28;21295;-70
2022/12/27 06:53:16;;;;;;;;;;;5.40;99.90;;;;;;5089500;28;19916;-70
2022/12/27 06:55:42;;;;;;;;;;;5.40;99.90;;;;;;5094192;28;20677;-69
2022/12/27 06:58:07;;;;;;;;;;;5.40;99.90;;;;;;5098744;28;19920;-71
2022/12/27 07:00:33;;;;;;;;;;;5.40;99.90;;;;;;5099130;28;19920;-70
2022/12/27 07:02:58;;;;;;;;;;;5.40;99.90;;;;;;5103918;28;20010;-70
2022/12/27 07:05:24;;;;;;;;;;;5.30;99.90;;;;;;5072441;28;19916;-70
2022/12/27 07:07:52;;;;;;;;;;;5.30;99.90;;;;;;5082978;28;19915;-70
2022/12/27 07:10:18;;;;;;;;;;;5.30;99.90;;;;;;5091945;28;20758;-71
2022/12/27 07:12:44;;;;;;;;;;;5.30;99.90;;;;;;5099453;28;19916;-69
2022/12/27 07:15:09;;;;;;;;;;;5.30;99.90;;;;;;5107462;28;19934;-71
2022/12/27 07:17:35;;;;;;;;;;;5.30;99.90;;;;;;5089205;28;20053;-70
2022/12/27 07:20:02;;;;;;;;;;;5.30;99.90;;;;;;5080141;28;20238;-70
2022/12/27 07:22:28;;;;;;;;;;;5.30;99.90;;;;;;5100191;28;19919;-71
2022/12/27 07:24:53;;;;;;;;;;;5.30;99.90;;;;;;5089652;28;19916;-71
2022/12/27 07:27:19;;;;;;;;;;;5.30;99.90;;;;;;5086353;28;20410;-70
2022/12/27 07:29:45;;;;;;;;;;;5.30;99.90;;;;;;5076460;28;19916;-70
2022/12/27 07:32:10;;;;;;;;;;;5.30;99.90;;;;;;5089981;28;20475;-71
2022/12/27 07:34:36;;;;;;;;;;;5.30;99.90;;;;;;5111805;28;19926;-71
2022/12/27 07:37:01;;;;;;;;;;;5.30;99.90;;;;;;5106105;28;20023;-72
2022/12/27 07:39:27;;;;;;;;;;;5.30;99.90;;;;;;5093370;28;20023;-72
2022/12/27 07:41:53;;;;;;;;;;;5.30;99.90;;;;;;5098968;28;20077;-73
2022/12/27 07:44:18;;;;;;;;;;;5.30;99.90;;;;;;5108954;28;20293;-72
2022/12/27 07:46:44;;;;;;;;;;;5.30;99.90;;;;;;5093650;28;20468;-72
2022/12/27 07:49:10;;;;;;;;;;;5.30;99.90;;;;;;5083533;28;20022;-73
2022/12/27 07:51:36;;;;;;;;;;;5.30;99.90;;;;;;5097685;28;19998;-72
2022/12/27 07:54:02;;;;;;;;;;;5.30;99.90;;;;;;5112510;28;19922;-72
2022/12/27 07:56:28;;;;;;;;;;;5.40;99.90;;;;;;5099613;28;19920;-72
2022/12/27 07:58:54;;;;;;;;;;;5.40;99.90;;;;;;5101033;28;20511;-73
2022/12/27 08:01:20;;;;;;;;;;;5.40;99.90;;;;;;5110292;28;19920;-71
2022/12/27 08:03:45;;;;;;;;;;;5.40;99.90;;;;;;5103606;28;19961;-72
2022/12/27 08:06:17;;;;;;;;;;;5.40;99.90;;;;;;5095788;28;20366;-71
2022/12/27 08:08:43;;;;;;;;;;;5.40;99.90;;;;;;5088944;28;19927;-71
2022/12/27 08:11:09;;;;;;;;;;;5.40;99.90;;;;;;5103718;28;19912;-71
2022/12/27 08:13:35;;;;;;;;;;;5.40;99.90;;;;;;5079256;28;20625;-71
2022/12/27 08:16:00;;;;;;;;;;;5.40;99.90;;;;;;5098602;28;20365;-71
2022/12/27 08:18:26;;;;;;;;;;;5.40;99.90;;;;;;5088866;28;19990;-71
2022/12/27 08:20:52;;;;;;;;;;;5.40;99.90;;;;;;5091542;28;19916;-71
2022/12/27 08:23:17;;;;;;;;;;;5.40;99.90;;;;;;5098129;28;20349;-71
2022/12/27 08:25:44;;;;;;;;;;;5.40;99.90;;;;;;5085904;28;19924;-71
2022/12/27 08:28:10;;;;;;;;;;;5.40;99.90;;;;;;5078002;28;20327;-71
2022/12/27 08:30:37;;;;;;;;;;;5.40;99.90;;;;;;5081689;28;19915;-71
2022/12/27 08:33:03;;;;;;;;;;;5.40;99.90;;;;;;5094074;28;20416;-70
2022/12/27 08:35:28;;;;;;;;;;;5.40;99.90;;;;;;5096795;28;19938;-70
2022/12/27 08:37:54;;;;;;;;;;;5.40;99.90;;;;;;5093634;28;19938;-71
2022/12/27 08:40:20;;;;;;;;;;;5.40;99.90;;;;;;5077353;28;19920;-71
2022/12/27 08:42:45;;;;;;;;;;;5.40;99.90;;;;;;5103166;28;20038;-71
2022/12/27 08:45:11;;;;;;;;;;;5.40;99.90;;;;;;5078363;28;20351;-70
2022/12/27 08:47:37;;;;;;;;;;;5.40;99.90;;;;;;5111327;28;20252;-71
2022/12/27 08:50:03;;;;;;;;;;;5.40;99.90;;;;;;5085830;28;19913;-70
2022/12/27 08:52:29;;;;;;;;;;;5.40;99.90;;;;;;5081244;28;19916;-71
2022/12/27 08:54:54;;;;;;;;;;;5.40;99.90;;;;;;5103136;28;19916;-70
2022/12/27 08:57:20;;;;;;;;;;;5.40;99.90;;;;;;5083540;28;19916;-71
2022/12/27 08:59:46;;;;;;;;;;;5.40;99.90;;;;;;5104383;28;19992;-71
2022/12/27 09:02:13;;;;;;;;;;;5.40;99.90;;;;;;5089640;28;19912;-72
2022/12/27 09:04:38;;;;;;;;;;;5.40;99.90;;;;;;5075657;28;19916;-73
2022/12/27 09:07:04;;;;;;;;;;;5.40;99.90;;;;;;5103383;28;19912;-73
2022/12/27 09:09:30;;;;;;;;;;;5.40;99.90;;;;;;5112646;28;19926;-72
2022/12/27 09:11:55;;;;;;;;;;;5.40;99.90;;;;;;5082687;28;19973;-73
2022/12/27 09:14:21;;;;;;;;;;;5.40;99.90;;;;;;5098480;28;19923;-74
2022/12/27 09:16:46;;;;;;;;;;;5.40;99.90;;;;;;5080217;28;19920;-73
2022/12/27 09:19:18;;;;;;;;;;;5.40;99.90;;;;;;5075868;28;19916;-72
2022/12/27 09:21:44;;;;;;;;;;;5.40;99.90;;;;;;5099208;28;19916;-71
2022/12/27 09:24:15;;;;;;;;;;;5.50;99.90;;;;;;5110481;28;20215;-72
2022/12/27 09:26:41;;;;;;;;;;;5.50;99.90;;;;;;5092450;28;20400;-72
2022/12/27 09:29:07;;;;;;;;;;;5.40;99.90;;;;;;5102887;28;19923;-72
2022/12/27 09:31:34;;;;;;;;;;;5.50;99.90;;;;;;5098269;28;19923;-72
2022/12/27 09:34:00;;;;;;;;;;;5.50;99.90;;;;;;5101859;28;19916;-72
2022/12/27 09:36:26;;;;;;;;;;;5.50;99.90;;;;;;5113295;27;19973;-71
2022/12/27 09:38:52;;;;;;;;;;;5.50;99.90;;;;;;5109871;28;19912;-70
2022/12/27 09:41:41;;;;;;;;;;;5.50;99.90;;;;;;5093221;28;20225;-71
2022/12/27 09:44:12;;;;;;;;;;;5.50;99.90;;;;;;5094312;28;20058;-71
2022/12/27 09:46:50;;;;;;;;;;;5.50;99.90;;;;;;5088881;28;20036;-71
2022/12/27 09:49:16;;;;;;;;;;;5.60;99.90;;;;;;5100675;28;20351;-72
2022/12/27 09:51:50;;;;;;;;;;;5.60;99.90;;;;;;5105598;28;19915;-71
2022/12/27 09:54:39;;;;;;;;;;;5.60;99.90;;;;;;5100999;28;20323;-72
2022/12/27 09:57:08;;;;;;;;;;;5.60;99.90;;;;;;5083269;28;19915;-72
2022/12/27 09:59:38;;;;;;;;;;;5.60;99.90;;;;;;5090702;28;19969;-72
2022/12/27 10:02:14;;;;;;;;;;;5.60;99.90;;;;;;5080491;28;19955;-72
2022/12/27 10:04:39;;;;;;;;;;;5.60;99.90;;;;;;5097382;28;19922;-73
2022/12/27 10:07:18;;;;;;;;;;;5.60;99.90;;;;;;5100562;28;19924;-71
2022/12/27 10:09:50;;;;;;;;;;;5.70;99.90;;;;;;5088391;28;19966;-70
2022/12/27 10:12:19;;;;;;;;;;;5.70;99.90;;;;;;5087820;28;20428;-71
2022/12/27 10:15:00;;;;;;;;;;;5.70;99.90;;;;;;5091772;28;19915;-71
2022/12/27 10:17:38;;;;;;;;;;;5.70;99.90;;;;;;5103228;28;20276;-72
2022/12/27 10:20:23;;;;;;;;;;;5.70;99.90;;;;;;5082601;28;19925;-71
2022/12/27 10:22:50;;;;;;;;;;;5.70;99.90;;;;;;5101172;28;19916;-71
2022/12/27 10:25:17;;;;;;;;;;;5.70;99.90;;;;;;5082770;28;19956;-72
2022/12/27 10:27:42;;;;;;;;;;;5.70;99.90;;;;;;5110159;28;19927;-71
2022/12/27 10:30:12;;;;;;;;;;;5.70;99.90;;;;;;5084282;28;19919;-71
2022/12/27 10:32:43;;;;;;;;;;;5.70;99.90;;;;;;5100750;28;19998;-72
2022/12/27 10:35:18;;;;;;;;;;;5.70;99.90;;;;;;5090247;28;20018;-72
2022/12/27 10:37:44;;;;;;;;;;;5.80;99.90;;;;;;5088840;28;20348;-71
2022/12/27 10:40:11;;;;;;;;;;;5.80;99.90;;;;;;5067118;28;20464;-70
2022/12/27 10:42:41;;;;;;;;;;;5.80;99.90;;;;;;5085765;28;20356;-72
2022/12/27 10:45:26;;;;;;;;;;;5.90;99.90;;;;;;5071324;28;19951;-72
2022/12/27 10:47:52;;;;;;;;;;;5.90;99.90;;;;;;5108417;28;19916;-72
2022/12/27 10:50:18;;;;;;;;;;;6.00;99.90;;;;;;5082755;28;19959;-71
2022/12/27 10:52:43;;;;;;;;;;;6.00;99.90;;;;;;5098087;28;19955;-72
2022/12/27 10:55:28;;;;;;;;;;;6.00;99.90;;;;;;5060964;28;19916;-72
2022/12/27 10:57:53;;;;;;;;;;;6.00;99.90;;;;;;5101337;28;19985;-71
2022/12/27 11:00:20;;;;;;;;;;;6.00;99.90;;;;;;5081813;28;19920;-72
2022/12/27 11:02:48;;;;;;;;;;;6.10;99.90;;;;;;5094306;28;19926;-71
2022/12/27 11:05:24;;;;;;;;;;;6.20;99.90;;;;;;5100279;28;19981;-72
2022/12/27 11:07:50;;;;;;;;;;;6.20;99.90;;;;;;5108377;28;19962;-72
2022/12/27 11:10:20;;;;;;;;;;;6.20;99.90;;;;;;5074436;28;19987;-72
2022/12/27 11:12:55;;;;;;;;;;;6.20;99.90;;;;;;5077959;28;19915;-70
2022/12/27 11:15:21;;;;;;;;;;;6.20;99.90;;;;;;5080680;28;19930;-72
2022/12/27 11:17:51;;;;;;;;;;;6.20;99.90;;;;;;5075408;28;19916;-71
2022/12/27 11:20:21;;;;;;;;;;;6.20;99.90;;;;;;5102683;28;20579;-70
2022/12/27 11:22:54;;;;;;;;;;;6.30;99.90;;;;;;5091709;28;19916;-71
2022/12/27 11:25:20;;;;;;;;;;;6.30;99.90;;;;;;5096685;28;20612;-71
2022/12/27 11:27:46;;;;;;;;;;;6.20;99.90;;;;;;5099989;28;19915;-70
2022/12/27 11:30:26;;;;;;;;;;;6.20;99.90;;;;;;5070718;28;19916;-72
2022/12/27 11:32:51;;;;;;;;;;;6.10;99.90;;;;;;5077838;28;19926;-71
2022/12/27 11:35:18;;;;;;;;;;;6.10;99.90;;;;;;5090240;28;19924;-72
2022/12/27 11:37:46;;;;;;;;;;;6.00;99.90;;;;;;5081094;28;19919;-71
2022/12/27 11:40:24;;;;;;;;;;;6.20;99.90;;;;;;5100711;28;20011;-71
2022/12/27 11:42:50;;;;;;;;;;;6.10;99.90;;;;;;5093723;28;19922;-70
2022/12/27 11:45:16;;;;;;;;;;;6.00;99.90;;;;;;5088707;28;20304;-67
2022/12/27 11:47:41;;;;;;;;;;;5.80;99.90;;;;;;5093956;28;19915;-71
2022/12/27 11:50:26;;;;;;;;;;;5.70;99.90;;;;;;5108663;28;20101;-71
2022/12/27 11:52:54;;;;;;;;;;;5.40;99.90;;;;;;5102445;28;19920;-76
2022/12/27 11:55:22;;;;;;;;;;;5.40;99.90;;;;;;5077653;28;19950;-69
2022/12/27 11:58:20;;;;;;;;;;;5.20;99.90;;;;;;5074411;28;19951;-70
2022/12/27 12:01:05;;;;;;;;;;;5.30;99.90;;;;;;5077130;28;19946;-71
2022/12/27 12:03:52;;;;;;;;;;;5.20;99.90;;;;;;5084860;28;20298;-71
2022/12/27 12:06:37;;;;;;;;;;;5.10;99.90;;;;;;5095350;28;19920;-70
2022/12/27 12:09:20;;;;;;;;;;;5.20;99.90;;;;;;5109695;28;20021;-70
2022/12/27 12:11:49;;;;;;;;;;;5.10;99.90;;;;;;5095644;28;20027;-69
2022/12/27 12:14:33;;;;;;;;;;;5.40;99.90;;;;;;5098023;28;19923;-70
2022/12/27 12:17:03;;;;;;;;;;;5.90;99.90;;;;;;5100569;28;19967;-69
2022/12/27 12:19:38;;;;;;;;;;;6.40;99.90;;;;;;5112213;28;19951;-71
2022/12/27 12:22:04;;;;;;;;;;;6.70;99.90;;;;;;5106520;28;19915;-71
2022/12/27 12:24:53;;;;;;;;;;;7.10;99.90;;;;;;5074914;28;19970;-71
2022/12/27 12:27:37;;;;;;;;;;;6.80;99.90;;;;;;5084704;28;20329;-72
2022/12/27 12:30:21;;;;;;;;;;;7.00;99.90;;;;;;5112010;28;19916;-73
2022/12/27 12:32:58;;;;;;;;;;;6.70;99.90;;;;;;5071692;28;19977;-74
2022/12/27 12:35:39;;;;;;;;;;;7.10;99.90;;;;;;5110682;28;19951;-73
2022/12/27 12:38:08;;;;;;;;;;;7.20;99.90;;;;;;5086416;28;20387;-71
2022/12/27 12:40:36;;;;;;;;;;;7.00;99.90;;;;;;5089494;28;20293;-72
2022/12/27 12:43:25;;;;;;;;;;;6.90;99.90;;;;;;5094830;28;19924;-70
2022/12/27 12:45:51;;;;;;;;;;;6.90;99.90;;;;;;5075064;28;19912;-71
2022/12/27 12:48:20;;;;;;;;;;;6.80;99.90;;;;;;5090870;28;20283;-71
2022/12/27 12:51:04;;;;;;;;;;;6.80;99.90;;;;;;5079424;28;19959;-70
2022/12/27 12:53:30;;;;;;;;;;;6.80;99.90;;;;;;5090154;28;20016;-71
2022/12/27 12:55:55;;;;;;;;;;;6.60;99.90;;;;;;5085394;28;20726;-70
2022/12/27 12:58:21;;;;;;;;;;;6.40;99.90;;;;;;5093309;28;19920;-71
2022/12/27 13:00:46;;;;;;;;;;;6.40;99.90;;;;;;5107652;28;20276;-71
2022/12/27 13:03:31;;;;;;;;;;;6.40;99.90;;;;;;5104376;28;19912;-70
2022/12/27 13:06:02;;;;;;;;;;;6.30;99.90;;;;;;5090653;28;19951;-70
2022/12/27 13:08:33;;;;;;;;;;;6.20;99.90;;;;;;5090477;28;19919;-70
2022/12/27 13:11:28;;;;;;;;;;;6.30;99.90;;;;;;5092715;28;19992;-71
2022/12/27 13:14:05;;;;;;;;;;;6.30;99.90;;;;;;5103799;28;20309;-70
2022/12/27 13:16:34;;;;;;;;;;;6.20;99.90;;;;;;5088968;28;19946;-71
2022/12/27 13:19:12;;;;;;;;;;;6.20;99.90;;;;;;5102359;28;19916;-70
2022/12/27 13:21:51;;;;;;;;;;;6.20;99.90;;;;;;5109632;28;19949;-71
2022/12/27 13:24:23;;;;;;;;;;;6.20;99.90;;;;;;5090416;28;19916;-72
2022/12/27 13:26:51;;;;;;;;;;;6.20;99.90;;;;;;5086349;28;19920;-71
2022/12/27 13:29:26;;;;;;;;;;;6.20;99.90;;;;;;5086486;28;19925;-72
2022/12/27 13:31:58;;;;;;;;;;;6.20;99.90;;;;;;5103082;28;19912;-71
2022/12/27 13:34:27;;;;;;;;;;;6.10;99.90;;;;;;5088626;28;20061;-71
2022/12/27 13:36:53;;;;;;;;;;;6.20;99.90;;;;;;5098997;28;19930;-71
2022/12/27 13:39:31;;;;;;;;;;;6.20;99.90;;;;;;5104739;28;19924;-71
2022/12/27 13:42:15;;;;;;;;;;;6.10;99.90;;;;;;5103947;28;20378;-71
2022/12/27 13:44:44;;;;;;;;;;;6.10;99.90;;;;;;5109756;28;19985;-71
2022/12/27 13:47:26;;;;;;;;;;;6.10;99.90;;;;;;5098441;28;19919;-71
2022/12/27 13:49:57;;;;;;;;;;;6.20;99.90;;;;;;5097828;28;19916;-71
2022/12/27 13:52:53;;;;;;;;;;;6.10;99.90;;;;;;5090958;28;19946;-72
2022/12/27 13:55:36;;;;;;;;;;;6.20;99.90;;;;;;5067520;28;20380;-79
2022/12/27 13:58:17;;;;;;;;;;;6.20;99.90;;;;;;5095318;28;20058;-78
2022/12/27 14:01:01;;;;;;;;;;;6.20;99.90;;;;;;5091654;28;19920;-78
2022/12/27 14:03:27;;;;;;;;;;;6.20;99.90;;;;;;5097746;28;20325;-78
2022/12/27 14:05:59;;;;;;;;;;;6.20;99.90;;;;;;5102777;28;19915;-78
2022/12/27 14:08:39;;;;;;;;;;;6.20;99.90;;;;;;5103725;28;20264;-74
2022/12/27 14:11:11;;;;;;;;;;;6.20;99.90;;;;;;5083232;28;20296;-75
2022/12/27 14:13:37;;;;;;;;;;;6.20;99.90;;;;;;5058800;28;19920;-73
2022/12/27 14:16:22;;;;;;;;;;;6.20;99.90;;;;;;5062905;28;19927;-73
2022/12/27 14:19:06;;;;;;;;;;;6.20;99.90;;;;;;5082798;28;19924;-72
2022/12/27 14:21:38;;;;;;;;;;;6.20;99.90;;;;;;5106011;28;19981;-73
2022/12/27 14:24:16;;;;;;;;;;;6.20;99.90;;;;;;5088774;28;19915;-75
2022/12/27 14:26:57;;;;;;;;;;;6.10;99.90;;;;;;5091466;28;19923;-77
2022/12/27 14:29:22;;;;;;;;;;;6.10;99.90;;;;;;5081537;28;19924;-73
2022/12/27 14:32:03;;;;;;;;;;;6.10;99.90;;;;;;5096813;28;20000;-72
2022/12/27 14:34:38;;;;;;;;;;;6.10;99.90;;;;;;5085522;28;19970;-72
2022/12/27 14:37:22;;;;;;;;;;;6.00;99.90;;;;;;5088942;28;19970;-74
2022/12/27 14:40:01;;;;;;;;;;;6.10;99.90;;;;;;5097313;28;20009;-73
2022/12/27 14:42:30;;;;;;;;;;;6.00;99.90;;;;;;5090680;28;20003;-73
2022/12/27 14:44:58;;;;;;;;;;;6.00;99.90;;;;;;5092795;28;19913;-71
2022/12/27 14:47:36;;;;;;;;;;;6.00;99.90;;;;;;5094392;28;20242;-73
2022/12/27 14:50:14;;;;;;;;;;;6.00;99.90;;;;;;5095640;28;19927;-72
2022/12/27 14:52:45;;;;;;;;;;;6.00;99.90;;;;;;5100408;28;20230;-73
2022/12/27 14:55:23;;;;;;;;;;;6.00;99.90;;;;;;5092764;28;19923;-73
2022/12/27 14:58:01;;;;;;;;;;;5.90;99.90;;;;;;5070117;28;19924;-73
2022/12/27 15:00:27;;;;;;;;;;;5.90;99.90;;;;;;5091787;28;20338;-73
2022/12/27 15:03:11;;;;;;;;;;;5.80;99.90;;;;;;5088995;28;19916;-72
2022/12/27 15:05:46;;;;;;;;;;;5.80;99.90;;;;;;5085836;28;19916;-73
2022/12/27 15:08:18;;;;;;;;;;;5.80;99.90;;;;;;5100605;28;20183;-72
2022/12/27 15:10:46;;;;;;;;;;;5.80;99.90;;;;;;5093476;28;19942;-72
2022/12/27 15:13:13;;;;;;;;;;;5.70;99.90;;;;;;5095690;28;19962;-72
2022/12/27 15:15:51;;;;;;;;;;;5.70;99.90;;;;;;5095634;28;19920;-72
2022/12/27 15:18:35;;;;;;;;;;;5.70;99.90;;;;;;5106164;28;19920;-72
2022/12/27 15:21:09;;;;;;;;;;;5.70;99.90;;;;;;5107981;28;19927;-72
2022/12/27 15:23:35;;;;;;;;;;;5.70;99.90;;;;;;5092985;28;19969;-73
2022/12/27 15:26:04;;;;;;;;;;;5.60;99.90;;;;;;5085219;28;19916;-72
2022/12/27 15:28:53;;;;;;;;;;;5.60;99.90;;;;;;5086317;28;19912;-72
2022/12/27 15:31:37;;;;;;;;;;;5.60;99.90;;;;;;5088526;27;20292;-73
2022/12/27 15:34:18;;;;;;;;;;;5.60;99.90;;;;;;5105864;28;19911;-72
2022/12/27 15:37:06;;;;;;;;;;;5.50;99.90;;;;;;5112396;28;19957;-73
2022/12/27 15:39:32;;;;;;;;;;;5.50;99.90;;;;;;5102298;28;19923;-72
2022/12/27 15:42:03;;;;;;;;;;;5.60;99.90;;;;;;5096489;28;20405;-72
2022/12/27 15:44:42;;;;;;;;;;;5.60;99.90;;;;;;5105706;28;20323;-73
2022/12/27 15:47:11;;;;;;;;;;;5.60;99.90;;;;;;5091878;28;20002;-73
2022/12/27 15:49:43;;;;;;;;;;;5.50;99.90;;;;;;5097012;28;19919;-72
2022/12/27 15:52:32;;;;;;;;;;;5.50;99.90;;;;;;5095144;28;20370;-67
2022/12/27 15:55:03;;;;;;;;;;;5.50;99.90;;;;;;5092450;28;19945;-67
2022/12/27 15:57:35;;;;;;;;;;;5.50;99.90;;;;;;5102560;28;19916;-67
2022/12/27 16:00:12;;;;;;;;;;;5.40;99.90;;;;;;5110870;28;19930;-67
2022/12/27 16:02:47;;;;;;;;;;;5.40;99.90;;;;;;5105385;28;19919;-67
2022/12/27 16:05:22;;;;;;;;;;;5.40;99.90;;;;;;5088102;28;19916;-66
2022/12/27 16:07:57;;;;;;;;;;;5.30;99.90;;;;;;5110088;28;19916;-66
2022/12/27 16:10:31;;;;;;;;;;;5.20;99.90;;;;;;5091383;28;19927;-67
2022/12/27 16:13:03;;;;;;;;;;;5.20;99.90;;;;;;5090273;28;19923;-67
2022/12/27 16:15:49;;;;;;;;;;;5.20;99.90;;;;;;5092441;28;19920;-67
2022/12/27 16:18:18;;;;;;;;;;;5.10;99.90;;;;;;5095585;28;19999;-67
2022/12/27 16:21:17;;;;;;;;;;;5.10;99.90;;;;;;5111410;28;19955;-66
2022/12/27 16:23:45;;;;;;;;;;;5.10;99.90;;;;;;5089574;28;19922;-66
2022/12/27 16:26:14;;;;;;;;;;;5.00;99.90;;;;;;5092223;28;19922;-66